Time;durP1;ratioP1;P1;durP2;ratioP2;P2;SDS_P1;SDS_P2;PMS_P1;PMS_P2;Temp;Humidity;BMP_temperature;BMP_pressure;BME280_temperature;BME280_humidity;BME280_pressure;Samples;Min_cycle;Max_cycle;Signal;HPM_P1;HPM_P2
2024/03/13 00:02:14;;;;;;;26.33;15.03;;;9.60;99.90;;;;;;6308081;22;20492;-76
2024/03/13 00:04:43;;;;;;;23.17;14.97;;;9.60;99.90;;;;;;6307940;22;20429;-75
2024/03/13 00:07:13;;;;;;;22.48;14.70;;;9.60;99.90;;;;;;6307974;22;20070;-75
2024/03/13 00:09:46;;;;;;;24.47;14.13;;;9.60;99.90;;;;;;6308176;22;20006;-75
2024/03/13 00:12:14;;;;;;;23.80;13.43;;;9.60;99.90;;;;;;6307981;22;19995;-75
2024/03/13 00:14:40;;;;;;;22.33;14.03;;;9.60;99.90;;;;;;6308190;22;20105;-75
2024/03/13 00:17:06;;;;;;;27.07;13.67;;;9.60;99.90;;;;;;6312621;22;20022;-74
2024/03/13 00:19:33;;;;;;;19.57;13.80;;;9.60;99.90;;;;;;6339227;22;20003;-75
2024/03/13 00:22:04;;;;;;;21.57;13.60;;;9.50;99.90;;;;;;6339153;22;19999;-75
2024/03/13 00:24:30;;;;;;;18.67;13.40;;;9.60;99.90;;;;;;6338905;22;20024;-75
2024/03/13 00:26:57;;;;;;;24.75;13.98;;;9.50;99.90;;;;;;6339007;22;19995;-76
2024/03/13 00:29:26;;;;;;;22.40;12.83;;;9.50;99.90;;;;;;6339128;22;20094;-75
2024/03/13 00:31:53;;;;;;;19.73;12.93;;;9.50;99.90;;;;;;6338656;22;20003;-74
2024/03/13 00:34:20;;;;;;;22.60;12.87;;;9.50;99.90;;;;;;6338472;22;19995;-74
2024/03/13 00:36:47;;;;;;;22.73;13.40;;;9.50;99.90;;;;;;6338465;22;20007;-75
2024/03/13 00:39:13;;;;;;;22.15;12.02;;;9.50;99.90;;;;;;6338640;22;20010;-75
2024/03/13 00:41:39;;;;;;;17.37;11.80;;;9.50;99.90;;;;;;6338989;22;19998;-76
2024/03/13 00:44:39;;;;;;;16.53;11.27;;;9.40;99.90;;;;;;6339820;22;20056;-75
2024/03/13 00:47:08;;;;;;;18.30;11.33;;;9.40;99.90;;;;;;6339343;22;20003;-76
2024/03/13 00:49:35;;;;;;;14.10;10.60;;;9.30;99.90;;;;;;6339185;22;20003;-76
2024/03/13 00:52:02;;;;;;;15.73;10.03;;;9.20;99.90;;;;;;6339274;22;20003;-75
2024/03/13 00:58:22;;;;;;;16.57;10.73;;;9.20;99.90;;;;;;6253834;22;20018;-75
2024/03/13 01:01:56;;;;;;;15.57;9.37;;;9.10;99.90;;;;;;6338918;22;20010;-75
2024/03/13 01:07:56;;;;;;;17.43;9.53;;;9.00;99.90;;;;;;6179004;23;19989;-74
2024/03/13 01:13:50;;;;;;;19.23;9.57;;;8.90;99.90;;;;;;6105932;22;20113;-75
2024/03/13 01:17:20;;;;;;;16.43;10.67;;;8.90;99.90;;;;;;6336422;22;20012;-75
2024/03/13 01:19:47;;;;;;;21.10;11.10;;;8.80;99.90;;;;;;6243373;23;20062;-75
2024/03/13 01:22:14;;;;;;;16.77;10.73;;;8.80;99.90;;;;;;6243442;23;20039;-74
2024/03/13 01:24:42;;;;;;;16.30;10.40;;;8.80;99.90;;;;;;6294836;22;20006;-74
2024/03/13 01:27:08;;;;;;;16.90;9.77;;;8.80;99.90;;;;;;6338380;22;20003;-75
2024/03/13 01:29:36;;;;;;;15.87;10.03;;;8.80;99.90;;;;;;6338382;22;20301;-75
2024/03/13 01:32:02;;;;;;;17.80;10.30;;;8.80;99.90;;;;;;6338377;22;20002;-75
2024/03/13 01:34:28;;;;;;;19.07;10.07;;;8.80;99.90;;;;;;6338534;22;20002;-75
2024/03/13 01:39:38;;;;;;;15.50;8.87;;;8.80;99.90;;;;;;6338338;22;20112;-75
2024/03/13 01:56:21;;;;;;;14.80;10.47;;;8.70;99.90;;;;;;6337993;22;20475;-75
2024/03/13 01:59:02;;;;;;;16.43;9.53;;;8.60;99.90;;;;;;6335351;22;20013;-74
2024/03/13 02:04:16;;;;;;;15.97;10.20;;;8.60;99.90;;;;;;6335917;22;20038;-73
2024/03/13 02:06:43;;;;;;;17.83;11.10;;;8.60;99.90;;;;;;6337830;22;20010;-73
2024/03/13 02:09:09;;;;;;;13.80;9.90;;;8.50;99.90;;;;;;6310264;22;20009;-73
2024/03/13 02:11:38;;;;;;;13.97;8.73;;;8.50;99.90;;;;;;6338201;22;20009;-73
2024/03/13 02:14:05;;;;;;;16.37;9.80;;;8.50;99.90;;;;;;6337797;22;20048;-73
2024/03/13 02:16:31;;;;;;;14.83;8.93;;;8.60;99.90;;;;;;6337834;22;20072;-73
2024/03/13 02:18:59;;;;;;;19.53;9.00;;;8.60;99.90;;;;;;6337907;22;20011;-73
2024/03/13 02:21:25;;;;;;;14.77;7.73;;;8.60;99.90;;;;;;6310177;22;20007;-75
2024/03/13 02:23:51;;;;;;;11.90;8.40;;;8.60;99.90;;;;;;6338951;22;20005;-75
2024/03/13 02:26:19;;;;;;;15.73;8.23;;;8.50;99.90;;;;;;6339011;22;20034;-75
2024/03/13 02:28:45;;;;;;;11.80;8.47;;;8.50;99.90;;;;;;6338966;22;20386;-75
2024/03/13 02:31:11;;;;;;;10.10;7.90;;;8.50;99.90;;;;;;6338723;22;20387;-75
2024/03/13 02:33:37;;;;;;;12.20;7.70;;;8.50;99.90;;;;;;6338399;22;20031;-75
2024/03/13 02:37:11;;;;;;;15.57;7.80;;;8.50;99.90;;;;;;6337289;22;20188;-74
2024/03/13 02:40:17;;;;;;;12.73;7.75;;;8.40;99.90;;;;;;6181949;23;20005;-75
2024/03/13 02:53:13;;;;;;;12.93;7.20;;;8.30;99.90;;;;;;6182840;23;20456;-75
2024/03/13 02:56:01;;;;;;;10.80;6.97;;;8.30;99.90;;;;;;6336988;22;20011;-75
2024/03/13 03:02:35;;;;;;;12.50;8.20;;;8.30;99.90;;;;;;6241974;23;20012;-75
2024/03/13 03:05:03;;;;;;;14.90;8.30;;;8.30;99.90;;;;;;6236590;23;20004;-75
2024/03/13 03:07:32;;;;;;;9.77;7.60;;;8.30;99.90;;;;;;6329338;22;20005;-75
2024/03/13 03:09:58;;;;;;;14.80;8.23;;;8.30;99.90;;;;;;6337772;22;20003;-75
2024/03/13 03:12:24;;;;;;;15.90;8.93;;;8.30;99.90;;;;;;6310250;22;20002;-74
2024/03/13 03:14:50;;;;;;;12.27;8.00;;;8.30;99.90;;;;;;6337325;22;19999;-75
2024/03/13 03:17:16;;;;;;;10.33;7.27;;;8.40;99.90;;;;;;6337420;22;20038;-74
2024/03/13 03:19:42;;;;;;;11.33;7.23;;;8.40;99.90;;;;;;6338235;22;20298;-75
2024/03/13 03:22:10;;;;;;;10.93;7.60;;;8.40;99.90;;;;;;6310141;22;20032;-76
2024/03/13 03:24:36;;;;;;;13.97;7.37;;;8.40;99.90;;;;;;6337568;22;20388;-75
2024/03/13 03:27:02;;;;;;;13.00;7.03;;;8.30;99.90;;;;;;6337508;22;20060;-74
2024/03/13 03:29:28;;;;;;;11.57;8.17;;;8.30;99.90;;;;;;6337799;22;20006;-75
2024/03/13 03:31:54;;;;;;;10.73;7.07;;;8.30;99.90;;;;;;6337552;22;19999;-76
2024/03/13 03:34:24;;;;;;;13.83;7.77;;;8.30;99.90;;;;;;6337339;22;20027;-76
2024/03/13 03:36:49;;;;;;;15.77;8.37;;;8.20;99.90;;;;;;6339613;22;20422;-74
2024/03/13 03:39:15;;;;;;;12.97;7.47;;;8.20;99.90;;;;;;6339684;22;19999;-76
2024/03/13 03:41:42;;;;;;;13.37;7.83;;;8.10;99.90;;;;;;6339324;22;19995;-75
2024/03/13 03:44:11;;;;;;;12.10;7.07;;;8.10;99.90;;;;;;6339384;22;20455;-74
2024/03/13 03:46:38;;;;;;;18.17;7.80;;;8.00;99.90;;;;;;6339284;22;19995;-75
2024/03/13 03:49:05;;;;;;;15.20;7.83;;;8.00;99.90;;;;;;6339554;22;19999;-75
2024/03/13 03:51:32;;;;;;;9.37;7.50;;;7.90;99.90;;;;;;6339592;22;20010;-74
2024/03/13 03:53:58;;;;;;;12.27;8.10;;;8.00;99.90;;;;;;6311890;22;20014;-74
2024/03/13 03:56:24;;;;;;;14.60;7.67;;;7.90;99.90;;;;;;6338820;22;20022;-75
2024/03/13 03:58:54;;;;;;;13.80;9.20;;;7.90;99.90;;;;;;6339536;22;19999;-75
2024/03/13 04:01:20;;;;;;;11.13;7.37;;;7.90;99.90;;;;;;6339497;22;20010;-75
2024/03/13 04:03:47;;;;;;;12.07;7.83;;;7.90;99.90;;;;;;6339451;22;19995;-75
2024/03/13 04:06:17;;;;;;;12.83;7.70;;;7.90;99.90;;;;;;6339127;22;20482;-75
2024/03/13 04:08:44;;;;;;;11.87;7.73;;;7.90;99.90;;;;;;6340209;22;20060;-76
2024/03/13 04:11:14;;;;;;;9.27;7.40;;;7.90;99.90;;;;;;6339997;22;20007;-75
2024/03/13 04:13:40;;;;;;;14.73;7.70;;;7.80;99.90;;;;;;6339694;22;19995;-76
2024/03/13 04:16:10;;;;;;;9.93;7.10;;;7.80;99.90;;;;;;6339298;22;20007;-75
2024/03/13 04:18:43;;;;;;;15.50;7.27;;;7.80;99.90;;;;;;6339124;22;20372;-74
2024/03/13 04:31:54;;;;;;;13.87;7.63;;;7.70;99.90;;;;;;6066131;23;20123;-75
2024/03/13 04:38:27;;;;;;;10.97;7.10;;;7.60;99.90;;;;;;6007978;23;20535;-75
2024/03/13 04:41:40;;;;;;;11.17;8.40;;;7.60;99.90;;;;;;6057625;23;20010;-75
2024/03/13 04:44:32;;;;;;;11.83;7.87;;;7.60;99.90;;;;;;6185140;22;20016;-75
2024/03/13 04:47:01;;;;;;;11.60;7.90;;;7.60;99.90;;;;;;6322563;22;20371;-75
2024/03/13 04:49:27;;;;;;;10.70;7.80;;;7.60;99.90;;;;;;6338580;22;20359;-75
2024/03/13 04:51:56;;;;;;;8.97;6.83;;;7.60;99.90;;;;;;6339131;22;19999;-75
2024/03/13 04:54:22;;;;;;;10.67;7.40;;;7.60;99.90;;;;;;6339019;22;19991;-74
2024/03/13 04:56:47;;;;;;;10.83;7.17;;;7.50;99.90;;;;;;6338928;22;20018;-75
2024/03/13 04:59:13;;;;;;;11.37;7.67;;;7.50;99.90;;;;;;6339075;22;19999;-75
2024/03/13 05:01:39;;;;;;;13.67;7.27;;;7.50;99.90;;;;;;6338752;22;20003;-75
2024/03/13 05:04:04;;;;;;;13.97;8.23;;;7.50;99.90;;;;;;6339063;22;20015;-76
2024/03/13 05:06:30;;;;;;;13.70;7.90;;;7.50;99.90;;;;;;6311081;22;20002;-75
2024/03/13 05:08:56;;;;;;;23.67;9.70;;;7.50;99.90;;;;;;6338928;22;20007;-75
2024/03/13 05:11:21;;;;;;;16.87;10.70;;;7.50;99.90;;;;;;6338920;22;20002;-75
2024/03/13 05:13:47;;;;;;;23.03;10.93;;;7.50;99.90;;;;;;6337017;22;20006;-74
2024/03/13 05:16:15;;;;;;;23.87;13.63;;;7.50;99.90;;;;;;6338208;22;20077;-75
2024/03/13 05:18:42;;;;;;;29.40;13.03;;;7.50;99.90;;;;;;6338439;22;20068;-75
2024/03/13 05:21:08;;;;;;;25.97;13.83;;;7.40;99.90;;;;;;6338348;22;20584;-74
2024/03/13 05:23:34;;;;;;;29.57;15.20;;;7.40;99.90;;;;;;6338310;22;20443;-75
2024/03/13 05:25:59;;;;;;;25.47;14.20;;;7.40;99.90;;;;;;6338442;22;20003;-74
2024/03/13 05:28:25;;;;;;;23.43;13.00;;;7.30;99.90;;;;;;6338342;22;20003;-73
2024/03/13 05:30:51;;;;;;;26.87;12.70;;;7.40;99.90;;;;;;6338132;22;20003;-72
2024/03/13 05:33:17;;;;;;;19.70;10.67;;;7.40;99.90;;;;;;6338655;22;20026;-73
2024/03/13 05:35:43;;;;;;;16.73;8.03;;;7.50;99.90;;;;;;6338193;22;20048;-72
2024/03/13 05:38:09;;;;;;;15.93;6.37;;;7.50;99.90;;;;;;6338908;22;19999;-72
2024/03/13 05:40:35;;;;;;;15.70;6.33;;;7.40;99.90;;;;;;6338475;22;20497;-72
2024/03/13 05:43:01;;;;;;;12.50;6.13;;;7.40;99.90;;;;;;6310520;22;20018;-73
2024/03/13 05:45:27;;;;;;;18.20;6.20;;;7.40;99.90;;;;;;6337815;22;20328;-73
2024/03/13 05:47:52;;;;;;;16.47;6.40;;;7.30;99.90;;;;;;6338326;22;20386;-73
2024/03/13 05:50:18;;;;;;;21.10;6.30;;;7.30;99.90;;;;;;6338421;22;20034;-75
2024/03/13 05:52:47;;;;;;;15.63;6.60;;;7.30;99.90;;;;;;6338799;22;20003;-75
2024/03/13 05:55:16;;;;;;;12.83;6.87;;;7.30;99.90;;;;;;6337699;22;20370;-73
2024/03/13 05:57:43;;;;;;;33.80;7.67;;;7.30;99.90;;;;;;6309970;22;20534;-75
2024/03/13 06:00:12;;;;;;;28.23;9.27;;;7.30;99.90;;;;;;6337320;22;20320;-74
2024/03/13 06:03:13;;;;;;;32.20;8.07;;;7.30;99.90;;;;;;6337535;22;20006;-75
2024/03/13 06:09:37;;;;;;;35.90;9.10;;;7.30;99.90;;;;;;6066760;23;20003;-75
2024/03/13 06:12:15;;;;;;;44.97;11.40;;;7.30;99.90;;;;;;6181383;23;20004;-75
2024/03/13 06:18:35;;;;;;;24.27;9.00;;;7.30;99.90;;;;;;6121624;23;20022;-76
2024/03/13 06:21:39;;;;;;;31.33;11.40;;;7.40;99.90;;;;;;6063104;23;20029;-75
2024/03/13 06:27:15;;;;;;;21.67;9.80;;;7.40;99.90;;;;;;6182057;23;20031;-76
2024/03/13 06:29:59;;;;;;;34.63;11.23;;;7.50;99.90;;;;;;6156938;23;20094;-76
2024/03/13 06:32:28;;;;;;;25.03;9.87;;;7.60;99.90;;;;;;6235420;22;20324;-76
2024/03/13 06:34:55;;;;;;;17.97;8.80;;;7.70;99.90;;;;;;6338099;22;20003;-76
2024/03/13 06:37:23;;;;;;;18.00;8.43;;;7.70;99.90;;;;;;6310469;22;20038;-76
2024/03/13 06:39:49;;;;;;;12.53;7.33;;;7.80;99.90;;;;;;6309501;22;20076;-76
2024/03/13 06:42:15;;;;;;;11.40;6.80;;;7.90;99.90;;;;;;6309960;22;19999;-76
2024/03/13 06:44:40;;;;;;;11.57;7.07;;;8.00;99.90;;;;;;6310428;22;20321;-75
2024/03/13 06:47:07;;;;;;;11.27;7.30;;;8.10;99.90;;;;;;6337810;22;19995;-75
2024/03/13 06:49:33;;;;;;;11.20;7.37;;;8.20;99.90;;;;;;6338319;22;20064;-75
2024/03/13 06:51:59;;;;;;;11.90;7.10;;;8.30;99.90;;;;;;6337803;22;19999;-82
2024/03/13 06:54:25;;;;;;;16.50;7.53;;;8.40;99.90;;;;;;6337909;22;20489;-83
2024/03/13 06:56:50;;;;;;;17.40;7.80;;;8.50;99.90;;;;;;6338373;22;20010;-87
2024/03/13 06:59:17;;;;;;;16.77;9.00;;;8.60;99.90;;;;;;6337888;22;20002;-86
2024/03/13 07:01:51;;;;;;;19.73;8.23;;;8.70;99.90;;;;;;6337949;22;20441;-77
2024/03/13 07:04:17;;;;;;;12.40;7.90;;;8.70;99.90;;;;;;6337669;22;20433;-76
2024/03/13 07:06:43;;;;;;;13.73;7.47;;;8.80;99.90;;;;;;6337820;22;20022;-82
2024/03/13 07:09:09;;;;;;;16.37;7.43;;;8.80;99.90;;;;;;6338679;22;19995;-82
2024/03/13 07:11:36;;;;;;;10.67;7.13;;;8.80;99.90;;;;;;6339735;22;20030;-82
2024/03/13 07:14:02;;;;;;;8.00;6.17;;;8.80;99.90;;;;;;6339791;22;20003;-75
2024/03/13 07:16:28;;;;;;;11.33;7.03;;;8.80;99.90;;;;;;6311443;22;20018;-76
2024/03/13 07:18:58;;;;;;;13.70;7.60;;;8.90;99.90;;;;;;6311539;22;20014;-76
2024/03/13 07:21:24;;;;;;;11.00;6.63;;;8.90;99.90;;;;;;6339316;22;19999;-76
2024/03/13 07:23:50;;;;;;;25.70;8.17;;;8.90;99.90;;;;;;6339694;22;20007;-76
2024/03/13 07:26:15;;;;;;;23.63;8.17;;;9.00;99.90;;;;;;6339338;22;20074;-79
2024/03/13 07:28:41;;;;;;;28.33;8.40;;;9.00;99.90;;;;;;6338859;22;20003;-78
2024/03/13 07:31:07;;;;;;;26.47;9.70;;;9.00;99.90;;;;;;6338254;22;20002;-78
2024/03/13 07:33:34;;;;;;;33.43;10.60;;;9.00;99.90;;;;;;6338988;22;20076;-78
2024/03/13 07:35:59;;;;;;;38.43;10.53;;;9.10;99.90;;;;;;6339985;22;20015;-79
2024/03/13 07:38:25;;;;;;;37.17;10.97;;;9.10;99.90;;;;;;6339476;22;20451;-78
2024/03/13 07:40:53;;;;;;;34.63;10.27;;;9.20;99.90;;;;;;6338709;22;20007;-77
2024/03/13 07:43:19;;;;;;;35.33;10.40;;;9.20;99.90;;;;;;6338531;22;20397;-79
2024/03/13 07:46:16;;;;;;;39.40;9.83;;;9.30;99.90;;;;;;6338611;22;20010;-77
2024/03/13 07:49:27;;;;;;;;;;;;;;;;;;;;;
2024/03/13 07:52:29;;;;;;;24.73;9.77;;;9.50;99.90;;;;;;6182114;23;20088;-75
2024/03/13 07:55:34;;;;;;;29.45;8.18;;;9.60;99.90;;;;;;6180732;23;20005;-79
2024/03/13 07:58:41;;;;;;;15.47;7.87;;;9.60;99.90;;;;;;6182325;23;20451;-78
2024/03/13 08:02:10;;;;;;;19.53;7.83;;;9.80;99.90;;;;;;6066042;23;20017;-78
2024/03/13 08:05:02;;;;;;;30.50;8.43;;;9.90;99.90;;;;;;6008184;23;20012;-77
2024/03/13 08:11:05;;;;;;;8.63;5.53;;;10.10;99.90;;;;;;5953548;24;20047;-78
2024/03/13 08:13:31;;;;;;;9.37;5.00;;;10.20;99.90;;;;;;5953001;24;20184;-79
2024/03/13 08:15:57;;;;;;;8.45;4.38;;;10.30;99.90;;;;;;6188870;22;20333;-78
2024/03/13 08:18:24;;;;;;;11.45;5.53;;;10.30;99.90;;;;;;6339020;22;20444;-78
2024/03/13 08:20:52;;;;;;;10.33;4.93;;;10.40;99.90;;;;;;6338982;22;20011;-77
2024/03/13 08:23:18;;;;;;;9.32;4.03;;;10.50;99.90;;;;;;6311843;22;20057;-78
2024/03/13 08:25:44;;;;;;;10.30;3.95;;;10.60;99.90;;;;;;6339245;22;20009;-79
2024/03/13 08:28:10;;;;;;;7.00;3.80;;;10.70;99.90;;;;;;6338280;22;20030;-79
2024/03/13 08:30:36;;;;;;;13.55;3.88;;;10.80;99.90;;;;;;6338819;22;20048;-79
2024/03/13 08:33:02;;;;;;;13.70;4.57;;;10.90;99.90;;;;;;6311071;22;20078;-79
2024/03/13 08:35:32;;;;;;;12.35;4.97;;;10.90;99.90;;;;;;6338300;22;20002;-79
2024/03/13 08:37:59;;;;;;;21.65;6.28;;;11.00;99.90;;;;;;6339148;22;20298;-76
2024/03/13 08:40:32;;;;;;;12.25;6.30;;;11.10;99.90;;;;;;6339264;22;19999;-78
2024/03/13 08:42:58;;;;;;;9.65;5.25;;;11.20;99.90;;;;;;6339113;22;20332;-78
2024/03/13 08:45:27;;;;;;;14.43;6.13;;;11.20;99.90;;;;;;6310917;22;20655;-77
2024/03/13 08:47:53;;;;;;;12.07;5.80;;;11.30;99.90;;;;;;6337426;22;20002;-77
2024/03/13 08:50:19;;;;;;;13.48;5.90;;;11.40;99.90;;;;;;6337768;22;20414;-78
2024/03/13 08:52:46;;;;;;;14.45;5.60;;;11.40;99.90;;;;;;6338575;22;20104;-69
2024/03/13 08:55:11;;;;;;;12.75;5.65;;;11.50;99.90;;;;;;6339298;22;20026;-69
2024/03/13 08:57:37;;;;;;;9.52;5.22;;;11.50;99.90;;;;;;6338853;22;20063;-72
2024/03/13 09:00:05;;;;;;;11.30;5.50;;;11.60;99.90;;;;;;6339110;22;20018;-70
2024/03/13 09:02:31;;;;;;;17.98;5.93;;;11.70;99.90;;;;;;6337365;22;20060;-70
2024/03/13 09:04:57;;;;;;;7.78;4.90;;;11.70;99.90;;;;;;6339096;22;19999;-70
2024/03/13 09:07:24;;;;;;;10.18;4.72;;;11.80;99.90;;;;;;6338774;22;20014;-70
2024/03/13 09:09:50;;;;;;;8.65;4.55;;;11.90;99.90;;;;;;6338565;22;20048;-71
2024/03/13 09:12:18;;;;;;;9.20;5.30;;;11.90;99.90;;;;;;6338428;22;20028;-71
2024/03/13 09:14:43;;;;;;;13.60;5.93;;;12.00;99.90;;;;;;6339586;22;20010;-79
2024/03/13 09:17:09;;;;;;;8.98;4.85;;;12.00;99.90;;;;;;6339787;22;20015;-78
2024/03/13 09:19:37;;;;;;;9.60;4.47;;;12.10;99.90;;;;;;6338971;22;20007;-70
2024/03/13 09:22:11;;;;;;;6.22;4.68;;;12.20;99.90;;;;;;6339391;22;20052;-69
2024/03/13 09:24:39;;;;;;;8.20;4.40;;;12.20;99.90;;;;;;6338768;22;20006;-70
2024/03/13 09:27:55;;;;;;;13.23;4.70;;;12.30;99.90;;;;;;6339250;22;20060;-70
2024/03/13 09:34:35;;;;;;;7.80;5.53;;;12.50;99.90;;;;;;6094296;23;20016;-70
2024/03/13 09:40:29;;;;;;;14.63;5.13;;;12.60;99.90;;;;;;6124391;23;20020;-70
2024/03/13 09:43:00;;;;;;;10.30;4.57;;;12.70;99.90;;;;;;6182705;23;20087;-70
2024/03/13 09:45:27;;;;;;;10.15;4.80;;;12.70;99.90;;;;;;6182974;23;20042;-71
2024/03/13 09:47:53;;;;;;;7.40;4.70;;;12.80;99.90;;;;;;6183484;23;20132;-70
2024/03/13 09:53:46;;;;;;;7.47;4.47;;;13.00;99.90;;;;;;6154149;23;20009;-70
2024/03/13 09:56:13;;;;;;;14.05;5.00;;;13.00;99.90;;;;;;6201950;22;20020;-70
2024/03/13 09:58:44;;;;;;;8.90;4.53;;;13.10;99.90;;;;;;6311045;22;20086;-70
2024/03/13 10:01:19;;;;;;;8.70;5.40;;;13.20;99.90;;;;;;6310910;22;20006;-70
2024/03/13 10:03:55;;;;;;;10.35;4.45;;;13.30;99.90;;;;;;6338878;22;20333;-70
2024/03/13 10:06:26;;;;;;;7.28;4.65;;;13.40;99.90;;;;;;6310805;22;20428;-71
2024/03/13 10:08:55;;;;;;;6.25;4.28;;;13.40;99.90;;;;;;6338495;22;20108;-70
2024/03/13 10:11:25;;;;;;;8.35;4.10;;;13.50;99.90;;;;;;6311038;22;20341;-70
2024/03/13 10:13:54;;;;;;;8.52;4.07;;;13.60;99.90;;;;;;6310592;22;20384;-71
2024/03/13 10:16:24;;;;;;;6.57;3.38;;;13.60;99.90;;;;;;6337945;22;20407;-70
2024/03/13 10:18:52;;;;;;;7.30;3.08;;;13.70;99.90;;;;;;6336802;22;20566;-70
2024/03/13 10:21:27;;;;;;;7.75;3.65;;;13.80;99.90;;;;;;6335248;22;20003;-71
2024/03/13 10:23:58;;;;;;;6.63;3.95;;;13.90;99.90;;;;;;6334798;22;20003;-72
2024/03/13 10:26:26;;;;;;;10.15;3.97;;;14.00;99.90;;;;;;6336734;22;20010;-71
2024/03/13 10:28:52;;;;;;;5.15;2.83;;;14.00;99.90;;;;;;6338148;22;19999;-71
2024/03/13 10:31:18;;;;;;;9.23;2.90;;;14.10;99.80;;;;;;6335179;22;20437;-71
2024/03/13 10:33:44;;;;;;;4.25;2.50;;;14.20;99.10;;;;;;6334186;22;20007;-70
2024/03/13 10:36:17;;;;;;;5.95;2.05;;;14.20;99.90;;;;;;6334889;22;20017;-70
2024/03/13 10:38:43;;;;;;;;;;;14.40;97.50;;;;;;6337172;22;19995;-70
2024/03/13 10:41:11;;;;;;;9.48;2.75;;;14.40;99.20;;;;;;6335765;22;19898;-70
2024/03/13 10:43:37;;;;;;;4.63;2.13;;;14.50;97.40;;;;;;6338555;22;20007;-74
2024/03/13 10:46:04;;;;;;;5.03;2.17;;;14.50;98.40;;;;;;6340314;22;20003;-69
2024/03/13 10:48:30;;;;;;;7.78;2.85;;;14.60;96.10;;;;;;6340792;22;20006;-73
2024/03/13 10:50:56;;;;;;;5.38;2.97;;;14.70;97.40;;;;;;6340243;22;19995;-69
2024/03/13 10:53:22;;;;;;;6.30;2.55;;;14.70;98.80;;;;;;6340359;22;20007;-72
2024/03/13 10:55:48;;;;;;;7.00;2.55;;;14.80;97.40;;;;;;6340371;22;20068;-74
2024/03/13 10:58:21;;;;;;;4.55;2.90;;;14.90;98.20;;;;;;6340642;22;20010;-70
2024/03/13 11:00:48;;;;;;;8.50;3.22;;;14.90;98.80;;;;;;6340453;22;20030;-70
2024/03/13 11:03:14;;;;;;;7.00;3.00;;;15.10;98.20;;;;;;6340403;22;20749;-69
2024/03/13 11:05:41;;;;;;;5.82;2.33;;;15.10;97.10;;;;;;6340467;22;20022;-70
2024/03/13 11:12:20;;;;;;;4.07;2.05;;;15.30;94.00;;;;;;6317428;22;20436;-71
2024/03/13 11:18:31;;;;;;;5.00;1.90;;;15.50;94.70;;;;;;6249358;22;20026;-72
2024/03/13 11:24:39;;;;;;;5.55;2.22;;;15.80;91.20;;;;;;6043617;23;20018;-71
2024/03/13 11:27:43;;;;;;;5.47;1.92;;;15.80;88.60;;;;;;6278526;22;20011;-73
2024/03/13 11:30:19;;;;;;;4.90;2.35;;;15.80;89.70;;;;;;6305589;22;20006;-72
2024/03/13 11:33:06;;;;;;;6.00;1.90;;;15.70;85.40;;;;;;6278603;22;20007;-70
2024/03/13 11:35:33;;;;;;;3.10;1.75;;;15.70;87.10;;;;;;6307418;22;20321;-71
2024/03/13 11:37:59;;;;;;;5.60;1.80;;;15.60;90.10;;;;;;6308576;22;20325;-70
2024/03/13 11:40:26;;;;;;;3.72;1.70;;;15.50;90.00;;;;;;6308746;22;19999;-70
2024/03/13 11:42:56;;;;;;;3.28;1.70;;;15.60;89.30;;;;;;6308313;22;20009;-71
2024/03/13 11:45:25;;;;;;;9.15;1.98;;;15.60;90.00;;;;;;6305492;22;20337;-68
2024/03/13 11:47:57;;;;;;;5.53;1.40;;;15.60;83.50;;;;;;6305122;22;20014;-68
2024/03/13 11:50:23;;;;;;;4.53;1.42;;;15.60;87.50;;;;;;6307686;22;20088;-68
2024/03/13 11:53:15;;;;;;;4.57;1.88;;;15.70;85.40;;;;;;6308377;22;20358;-70
2024/03/13 11:55:41;;;;;;;3.43;1.33;;;15.90;82.50;;;;;;6307587;22;20003;-69
2024/03/13 11:58:21;;;;;;;4.50;2.05;;;15.90;82.40;;;;;;6308227;22;20318;-68
2024/03/13 12:00:47;;;;;;;4.10;1.88;;;15.90;83.40;;;;;;6308439;22;20436;-68
2024/03/13 12:03:17;;;;;;;2.53;1.45;;;16.00;81.40;;;;;;6308517;22;20409;-69
2024/03/13 12:05:42;;;;;;;3.72;1.70;;;15.90;78.60;;;;;;6308413;22;20486;-68
2024/03/13 12:08:15;;;;;;;3.08;1.40;;;15.80;77.50;;;;;;6308144;22;20078;-69
2024/03/13 12:10:41;;;;;;;3.95;1.60;;;15.70;78.30;;;;;;6308737;22;20003;-68
2024/03/13 12:13:15;;;;;;;2.45;1.13;;;15.70;79.40;;;;;;6306004;22;20030;-70
2024/03/13 12:15:44;;;;;;;4.00;1.60;;;15.70;76.50;;;;;;6304943;22;20011;-70
2024/03/13 12:18:13;;;;;;;2.95;1.15;;;15.80;77.90;;;;;;6304736;22;20022;-70
2024/03/13 12:20:43;;;;;;;2.25;1.10;;;15.80;78.10;;;;;;6307752;22;19999;-70
2024/03/13 12:23:13;;;;;;;2.72;1.80;;;15.90;74.80;;;;;;6307842;22;20030;-69
2024/03/13 12:25:45;;;;;;;4.15;1.02;;;16.00;77.50;;;;;;6307938;22;20433;-70
2024/03/13 12:28:15;;;;;;;2.33;1.05;;;16.10;76.70;;;;;;6307660;22;20056;-75
2024/03/13 12:30:44;;;;;;;2.88;1.40;;;16.20;70.80;;;;;;6308469;22;20014;-69
2024/03/13 12:33:14;;;;;;;2.35;0.90;;;16.20;72.00;;;;;;6308266;22;20010;-69
2024/03/13 12:35:40;;;;;;;3.33;1.10;;;16.30;74.50;;;;;;6308502;22;20307;-68
2024/03/13 12:38:06;;;;;;;2.80;1.10;;;16.30;68.30;;;;;;6308637;22;19995;-69
2024/03/13 12:40:34;;;;;;;3.50;1.00;;;16.30;71.10;;;;;;6308556;22;20068;-68
2024/03/13 12:43:29;;;;;;;3.25;0.80;;;16.30;68.10;;;;;;6308202;22;20006;-68
2024/03/13 12:51:13;;;;;;;2.60;1.20;;;16.20;70.00;;;;;;6181240;23;20036;-69
2024/03/13 13:00:01;;;;;;;3.08;1.58;;;15.90;66.40;;;;;;5961933;24;20016;-69
2024/03/13 13:03:12;;;;;;;3.45;1.50;;;15.90;68.00;;;;;;5965151;24;20012;-70
2024/03/13 13:05:39;;;;;;;2.78;1.17;;;15.80;67.90;;;;;;5949697;24;20015;-69
2024/03/13 13:08:26;;;;;;;1.60;0.90;;;15.80;70.30;;;;;;5980260;24;20372;-69
2024/03/13 13:10:55;;;;;;;2.58;0.90;;;15.80;68.40;;;;;;5982556;23;20390;-70
2024/03/13 13:13:21;;;;;;;1.77;0.82;;;15.70;69.30;;;;;;6064674;23;20406;-70
2024/03/13 13:15:47;;;;;;;1.17;0.90;;;15.70;68.60;;;;;;6193757;22;20020;-69
2024/03/13 13:18:16;;;;;;;1.20;0.65;;;15.70;65.40;;;;;;6306968;22;20007;-70
2024/03/13 13:20:42;;;;;;;1.00;0.63;;;15.70;65.40;;;;;;6307527;22;20002;-69
2024/03/13 13:23:09;;;;;;;4.15;0.80;;;15.60;67.10;;;;;;6305835;22;20018;-71
2024/03/13 13:25:35;;;;;;;1.95;0.80;;;15.50;69.40;;;;;;6304128;22;20041;-69
2024/03/13 13:28:01;;;;;;;1.50;0.80;;;15.60;69.50;;;;;;6304040;22;20011;-71
2024/03/13 13:30:29;;;;;;;2.40;0.80;;;15.60;70.40;;;;;;6306195;22;19995;-70
2024/03/13 13:32:55;;;;;;;4.20;0.60;;;15.70;69.40;;;;;;6307657;22;20333;-70
2024/03/13 13:35:20;;;;;;;1.15;0.50;;;15.80;69.20;;;;;;6307170;22;20007;-70
2024/03/13 13:37:49;;;;;;;3.17;0.80;;;16.00;68.90;;;;;;6279620;22;20008;-70
2024/03/13 13:40:15;;;;;;;3.50;0.90;;;16.10;67.10;;;;;;6306894;22;20440;-69
2024/03/13 13:42:42;;;;;;;2.13;0.98;;;16.30;68.10;;;;;;6306932;22;21097;-69
2024/03/13 13:45:13;;;;;;;2.58;0.90;;;16.40;66.60;;;;;;6306651;22;20500;-69
2024/03/13 13:47:39;;;;;;;1.75;0.70;;;16.50;66.40;;;;;;6307103;22;20038;-70
2024/03/13 13:50:14;;;;;;;3.30;0.70;;;16.60;65.30;;;;;;6306737;22;19996;-71
2024/03/13 13:52:44;;;;;;;2.90;0.73;;;16.70;64.50;;;;;;6306266;22;20082;-70
2024/03/13 13:55:12;;;;;;;2.05;0.90;;;16.70;65.00;;;;;;6306896;22;20455;-70
2024/03/13 13:57:38;;;;;;;4.15;0.70;;;16.80;65.90;;;;;;6306791;22;20018;-69
2024/03/13 14:00:11;;;;;;;2.40;0.70;;;16.90;65.80;;;;;;6306821;22;19999;-70
2024/03/13 14:02:37;;;;;;;2.97;0.75;;;16.90;67.70;;;;;;6306994;22;20428;-70
2024/03/13 14:05:07;;;;;;;1.08;0.80;;;17.00;67.00;;;;;;6306975;22;19996;-70
2024/03/13 14:07:34;;;;;;;3.60;0.80;;;17.10;67.30;;;;;;6306932;22;20009;-69
2024/03/13 14:10:01;;;;;;;2.50;0.60;;;17.10;64.20;;;;;;6306783;22;20003;-69
2024/03/13 14:12:33;;;;;;;2.88;0.88;;;17.20;63.30;;;;;;6306289;22;20421;-71
2024/03/13 14:15:00;;;;;;;2.22;0.80;;;17.10;62.80;;;;;;6307110;22;20366;-70
2024/03/13 14:17:28;;;;;;;1.70;0.80;;;17.10;65.10;;;;;;6307618;22;20319;-69
2024/03/13 14:19:55;;;;;;;1.15;0.70;;;17.10;62.30;;;;;;6307125;22;20501;-69
2024/03/13 14:22:21;;;;;;;1.92;0.60;;;17.00;60.80;;;;;;6307222;22;20328;-69
2024/03/13 14:35:40;;;;;;;1.45;0.65;;;17.00;66.60;;;;;;5924205;24;20009;-69
2024/03/13 14:45:18;;;;;;;1.05;0.50;;;17.00;63.20;;;;;;5842709;24;20156;-69
2024/03/13 14:48:23;;;;;;;0.98;0.70;;;17.00;63.80;;;;;;5841323;24;20005;-69
2024/03/13 14:50:54;;;;;;;3.63;1.15;;;17.00;61.40;;;;;;5869202;24;20717;-69
2024/03/13 14:53:20;;;;;;;2.45;0.68;;;16.90;61.50;;;;;;5954378;24;20347;-69
2024/03/13 14:55:47;;;;;;;3.13;0.90;;;16.90;65.40;;;;;;6209795;22;20007;-69
2024/03/13 14:58:14;;;;;;;1.10;0.60;;;16.80;62.00;;;;;;6306642;22;20003;-69
2024/03/13 15:00:40;;;;;;;2.45;1.02;;;16.80;64.60;;;;;;6306345;22;19999;-75
2024/03/13 15:03:06;;;;;;;5.68;0.70;;;16.80;63.80;;;;;;6306259;22;20428;-76
2024/03/13 15:05:32;;;;;;;1.33;0.77;;;16.80;64.00;;;;;;6306600;22;20366;-77
2024/03/13 15:07:59;;;;;;;3.65;1.10;;;16.80;65.00;;;;;;6306659;22;20037;-75
2024/03/13 15:10:25;;;;;;;1.45;0.68;;;16.80;65.10;;;;;;6306549;22;20010;-76